Time;durP1;ratioP1;P1;durP2;ratioP2;P2;SDS_P1;SDS_P2;PMS_P1;PMS_P2;Temp;Humidity;BMP_temperature;BMP_pressure;BME280_temperature;BME280_humidity;BME280_pressure;Samples;Min_cycle;Max_cycle;Signal;HPM_P1;HPM_P2
2022/08/24 00:02:28;;;;;;;94.63;30.10;;;;;;;;;;6224481;28;20056;-63
2022/08/24 00:05:29;;;;;;;92.90;28.73;;;;;;;;;;6223527;28;20049;-55
2022/08/24 00:08:30;;;;;;;97.30;30.50;;;;;;;;;;6221306;28;20046;-58
2022/08/24 00:11:30;;;;;;;105.93;31.47;;;;;;;;;;6221846;28;20067;-58
2022/08/24 00:14:31;;;;;;;97.40;29.27;;;;;;;;;;6223406;28;20140;-62
2022/08/24 00:17:33;;;;;;;99.00;28.23;;;;;;;;;;6223365;28;20136;-60
2022/08/24 00:20:34;;;;;;;99.80;30.70;;;;;;;;;;6223413;28;20132;-63
2022/08/24 00:23:35;;;;;;;103.07;29.90;;;;;;;;;;6230337;28;20054;-61
2022/08/24 00:26:36;;;;;;;100.38;29.75;;;;;;;;;;6222885;28;20597;-59
2022/08/24 00:29:37;;;;;;;108.10;31.27;;;;;;;;;;6221944;28;20056;-59
2022/08/24 00:32:37;;;;;;;97.57;28.48;;;;;;;;;;6223673;28;20064;-59
2022/08/24 00:35:38;;;;;;;104.83;30.23;;;;;;;;;;6220349;28;20492;-62
2022/08/24 00:38:39;;;;;;;102.73;30.37;;;;;;;;;;6224303;28;20076;-62
2022/08/24 00:41:46;;;;;;;110.77;31.00;;;;;;;;;;6221781;28;20052;-60
2022/08/24 00:44:46;;;;;;;119.97;32.33;;;;;;;;;;6222189;28;20088;-58
2022/08/24 00:47:53;;;;;;;112.03;30.97;;;;;;;;;;6223681;28;20058;-59
2022/08/24 00:51:07;;;;;;;110.90;31.60;;;;;;;;;;6222772;28;20065;-57
2022/08/24 00:54:12;;;;;;;121.43;31.05;;;;;;;;;;6219874;28;20049;-61
2022/08/24 00:57:17;;;;;;;117.75;31.10;;;;;;;;;;6219655;28;20056;-61
2022/08/24 01:00:21;;;;;;;121.95;31.77;;;;;;;;;;6221447;28;20045;-63
2022/08/24 01:03:22;;;;;;;128.98;32.00;;;;;;;;;;6220056;28;21046;-60
2022/08/24 01:06:23;;;;;;;122.80;32.90;;;;;;;;;;6221144;28;20431;-62
2022/08/24 01:09:24;;;;;;;134.63;33.67;;;;;;;;;;6222989;28;20068;-58
2022/08/24 01:12:28;;;;;;;127.63;34.07;;;;;;;;;;6219869;28;20050;-62
2022/08/24 01:15:30;;;;;;;136.75;34.30;;;;;;;;;;6223323;28;20187;-59
2022/08/24 01:18:49;;;;;;;121.43;33.00;;;;;;;;;;6223586;28;20583;-61
2022/08/24 01:22:14;;;;;;;134.00;31.48;;;;;;;;;;6229417;28;20077;-58
2022/08/24 01:25:16;;;;;;;140.02;34.10;;;;;;;;;;6236281;28;20057;-56
2022/08/24 01:28:19;;;;;;;137.57;30.10;;;;;;;;;;6238514;28;20103;-62
2022/08/24 01:31:21;;;;;;;137.80;31.15;;;;;;;;;;6237263;28;20169;-57
2022/08/24 01:34:22;;;;;;;141.45;30.83;;;;;;;;;;6228044;28;20042;-60
2022/08/24 01:37:23;;;;;;;135.07;32.00;;;;;;;;;;6218390;28;20451;-59
2022/08/24 01:40:31;;;;;;;142.30;35.13;;;;;;;;;;6217532;28;20046;-58
2022/08/24 01:43:32;;;;;;;149.65;34.58;;;;;;;;;;6215894;28;20138;-60
2022/08/24 01:46:33;;;;;;;145.80;34.87;;;;;;;;;;6215205;28;20050;-58
2022/08/24 01:49:36;;;;;;;174.47;35.97;;;;;;;;;;6215826;28;20052;-59
2022/08/24 01:52:40;;;;;;;156.32;35.47;;;;;;;;;;6215622;28;20049;-58
2022/08/24 01:55:41;;;;;;;151.23;35.15;;;;;;;;;;6222964;28;20069;-59
2022/08/24 01:58:47;;;;;;;159.60;35.70;;;;;;;;;;6215836;28;20513;-59
2022/08/24 02:01:52;;;;;;;153.10;34.22;;;;;;;;;;6216577;28;20459;-58
2022/08/24 02:04:53;;;;;;;137.85;33.05;;;;;;;;;;6217611;28;20145;-59
2022/08/24 02:07:54;;;;;;;148.13;34.03;;;;;;;;;;6216735;28;20034;-59
2022/08/24 02:10:55;;;;;;;160.32;35.20;;;;;;;;;;6217612;28;20111;-60
2022/08/24 02:13:56;;;;;;;151.03;34.80;;;;;;;;;;6235505;28;20099;-59
2022/08/24 02:16:57;;;;;;;147.60;33.13;;;;;;;;;;6237945;28;20131;-58
2022/08/24 02:19:58;;;;;;;163.10;31.98;;;;;;;;;;6237768;28;20073;-59
2022/08/24 02:22:59;;;;;;;146.80;31.40;;;;;;;;;;6239588;28;20087;-58
2022/08/24 02:25:59;;;;;;;146.23;31.17;;;;;;;;;;6236798;28;20080;-60
2022/08/24 02:29:00;;;;;;;129.03;30.10;;;;;;;;;;6236430;28;20503;-58
2022/08/24 02:32:01;;;;;;;146.80;30.47;;;;;;;;;;6238490;28;20059;-58
2022/08/24 02:35:03;;;;;;;136.57;29.83;;;;;;;;;;6237308;28;20041;-57
2022/08/24 02:38:03;;;;;;;127.25;31.90;;;;;;;;;;6236844;28;20041;-59
2022/08/24 02:41:04;;;;;;;150.50;32.50;;;;;;;;;;6235236;28;20505;-59
2022/08/24 02:44:05;;;;;;;146.30;31.77;;;;;;;;;;6236601;28;20559;-59
2022/08/24 02:47:06;;;;;;;123.80;28.77;;;;;;;;;;6238709;28;20069;-59
2022/08/24 02:50:09;;;;;;;133.73;30.93;;;;;;;;;;6221474;28;20042;-59
2022/08/24 02:53:12;;;;;;;134.88;29.25;;;;;;;;;;6221538;28;20042;-58
2022/08/24 02:56:13;;;;;;;125.97;28.98;;;;;;;;;;6218620;28;20640;-60
2022/08/24 02:59:15;;;;;;;122.87;28.17;;;;;;;;;;6220889;28;20091;-59
2022/08/24 03:02:15;;;;;;;110.28;27.95;;;;;;;;;;6222266;28;20044;-58
2022/08/24 03:05:16;;;;;;;145.03;28.27;;;;;;;;;;6221078;28;20050;-58
2022/08/24 03:08:17;;;;;;;127.37;28.17;;;;;;;;;;6221214;28;21219;-60
2022/08/24 03:11:18;;;;;;;112.40;25.73;;;;;;;;;;6203182;28;20515;-58
2022/08/24 03:14:18;;;;;;;127.93;27.43;;;;;;;;;;6218995;28;20053;-58
2022/08/24 03:17:19;;;;;;;116.13;27.27;;;;;;;;;;6218952;28;20575;-60
2022/08/24 03:20:22;;;;;;;108.23;25.57;;;;;;;;;;6219427;28;20038;-57
2022/08/24 03:23:24;;;;;;;113.53;26.80;;;;;;;;;;6201317;28;20136;-58
2022/08/24 03:26:24;;;;;;;114.32;27.67;;;;;;;;;;6230937;28;20044;-58
2022/08/24 03:29:25;;;;;;;129.80;26.67;;;;;;;;;;6225428;28;20521;-59
2022/08/24 03:32:26;;;;;;;118.70;26.77;;;;;;;;;;6224925;28;20145;-58
2022/08/24 03:35:27;;;;;;;124.72;28.35;;;;;;;;;;6221728;28;20145;-60
2022/08/24 03:38:28;;;;;;;110.10;26.33;;;;;;;;;;6222150;28;20041;-59
2022/08/24 03:41:29;;;;;;;112.28;26.67;;;;;;;;;;6222849;28;20045;-59
2022/08/24 03:44:30;;;;;;;115.77;27.00;;;;;;;;;;6222523;28;20034;-59
2022/08/24 03:47:31;;;;;;;117.13;27.13;;;;;;;;;;6220627;28;20061;-59
2022/08/24 03:50:31;;;;;;;124.80;27.50;;;;;;;;;;6228626;28;20053;-61
2022/08/24 03:53:32;;;;;;;108.07;26.03;;;;;;;;;;6230150;28;20045;-59
2022/08/24 03:56:34;;;;;;;108.60;25.17;;;;;;;;;;6224355;28;20038;-58
2022/08/24 03:59:34;;;;;;;;;;;;;;;;;;6224799;28;20148;-58
2022/08/24 04:02:35;;;;;;;126.15;26.02;;;;;;;;;;6243336;28;20641;-60
2022/08/24 04:05:37;;;;;;;115.80;24.97;;;;;;;;;;6221893;28;20049;-58
2022/08/24 04:08:39;;;;;;;119.65;27.95;;;;;;;;;;6225998;28;20046;-58
2022/08/24 04:11:42;;;;;;;127.85;26.30;;;;;;;;;;6232424;28;20532;-58
2022/08/24 04:14:43;;;;;;;141.18;28.35;;;;;;;;;;6225275;28;20902;-59
2022/08/24 04:17:43;;;;;;;134.10;27.03;;;;;;;;;;6223513;28;20038;-60
2022/08/24 04:20:44;;;;;;;133.43;26.87;;;;;;;;;;6226285;28;20049;-59
2022/08/24 04:23:46;;;;;;;126.30;27.40;;;;;;;;;;6222466;28;20054;-58
2022/08/24 04:26:46;;;;;;;;;;;;;;;;;;6232608;28;20053;-59
2022/08/24 04:29:47;;;;;;;121.78;27.20;;;;;;;;;;6219051;28;19925;-59
2022/08/24 04:32:48;;;;;;;122.10;28.27;;;;;;;;;;6221985;28;20149;-59
2022/08/24 04:35:49;;;;;;;120.77;27.73;;;;;;;;;;6220296;28;20033;-58
2022/08/24 04:38:49;;;;;;;107.57;25.60;;;;;;;;;;6223601;28;20049;-58
2022/08/24 04:41:50;;;;;;;118.83;27.97;;;;;;;;;;6224128;28;20489;-59
2022/08/24 04:44:50;;;;;;;106.47;27.10;;;;;;;;;;6227435;28;20052;-57
2022/08/24 04:47:51;;;;;;;112.30;26.93;;;;;;;;;;6230165;28;20101;-60
2022/08/24 04:50:52;;;;;;;113.67;30.17;;;;;;;;;;6222691;28;20097;-58
2022/08/24 04:53:53;;;;;;;109.65;27.35;;;;;;;;;;6222786;28;20181;-58
2022/08/24 04:56:53;;;;;;;112.13;26.93;;;;;;;;;;6223670;28;20058;-58
2022/08/24 04:59:55;;;;;;;113.70;27.90;;;;;;;;;;6221054;28;20045;-60
2022/08/24 05:02:56;;;;;;;;;;;;;;;;;;6230491;28;20061;-59
2022/08/24 05:05:56;;;;;;;106.22;26.63;;;;;;;;;;6231812;28;19931;-60
2022/08/24 05:08:57;;;;;;;100.73;25.00;;;;;;;;;;6243104;28;20044;-63
2022/08/24 05:11:58;;;;;;;94.65;23.95;;;;;;;;;;6239842;28;20061;-59
2022/08/24 05:14:59;;;;;;;108.73;27.50;;;;;;;;;;6241777;28;20477;-60
2022/08/24 05:18:00;;;;;;;97.03;26.83;;;;;;;;;;6220683;28;20053;-54
2022/08/24 05:21:00;;;;;;;103.43;26.53;;;;;;;;;;6220694;28;20057;-57
2022/08/24 05:24:01;;;;;;;92.00;24.87;;;;;;;;;;6219737;28;20038;-59
2022/08/24 05:27:03;;;;;;;86.33;26.60;;;;;;;;;;6221807;28;20045;-55
2022/08/24 05:30:05;;;;;;;87.30;25.15;;;;;;;;;;6225706;28;20628;-59
2022/08/24 05:33:06;;;;;;;82.53;23.80;;;;;;;;;;6222007;28;20056;-58
2022/08/24 05:36:19;;;;;;;87.85;26.15;;;;;;;;;;6215792;28;20048;-57
2022/08/24 05:39:20;;;;;;;90.97;26.77;;;;;;;;;;6231300;28;20050;-57
2022/08/24 05:42:21;;;;;;;87.33;26.53;;;;;;;;;;6236423;28;20061;-56
2022/08/24 05:45:21;;;;;;;87.83;25.30;;;;;;;;;;6223353;28;20520;-58
2022/08/24 05:48:22;;;;;;;85.83;26.70;;;;;;;;;;6222302;28;20157;-56
2022/08/24 05:51:22;;;;;;;82.83;26.03;;;;;;;;;;6223656;28;20034;-56
2022/08/24 05:54:25;;;;;;;;;;;;;;;;;;6223580;28;20137;-56
2022/08/24 05:57:31;;;;;;;85.78;25.08;;;;;;;;;;6221111;28;19925;-61
2022/08/24 06:00:36;;;;;;;77.57;24.23;;;;;;;;;;6216499;28;20061;-54
2022/08/24 06:03:37;;;;;;;;;;;;;;;;;;6219694;28;20112;-57
2022/08/24 06:06:38;;;;;;;85.47;24.85;;;;;;;;;;6218737;28;20003;-57
2022/08/24 06:09:39;;;;;;;90.83;25.33;;;;;;;;;;6223383;28;20508;-58
2022/08/24 06:12:40;;;;;;;93.90;27.13;;;;;;;;;;6222357;28;20049;-58
2022/08/24 06:15:42;;;;;;;93.47;26.43;;;;;;;;;;6219643;28;20307;-57
2022/08/24 06:18:43;;;;;;;90.03;24.98;;;;;;;;;;6219256;28;20334;-60
2022/08/24 06:21:45;;;;;;;85.97;26.23;;;;;;;;;;6217451;28;20099;-63
2022/08/24 06:28:06;;;;;;;81.70;26.52;;;;;;;;;;6229239;28;20097;-60
2022/08/24 06:31:07;;;;;;;87.70;26.67;;;;;;;;;;6229218;28;20146;-60
2022/08/24 06:34:09;;;;;;;83.97;27.37;;;;;;;;;;6217481;28;20054;-59
2022/08/24 06:37:10;;;;;;;82.18;27.05;;;;;;;;;;6218098;28;20069;-65
2022/08/24 06:40:11;;;;;;;81.90;26.50;;;;;;;;;;6224794;28;20049;-60
2022/08/24 06:43:11;;;;;;;82.47;27.93;;;;;;;;;;6235449;28;20437;-61
2022/08/24 06:46:12;;;;;;;83.87;28.20;;;;;;;;;;6229160;28;20041;-62
2022/08/24 06:49:13;;;;;;;83.90;27.57;;;;;;;;;;6225027;28;20482;-62
2022/08/24 06:52:13;;;;;;;89.20;28.67;;;;;;;;;;6222800;28;20315;-59
2022/08/24 06:55:14;;;;;;;87.23;28.47;;;;;;;;;;6224366;28;20472;-61
2022/08/24 06:58:16;;;;;;;82.17;27.83;;;;;;;;;;6215839;28;20038;-60
2022/08/24 07:01:25;;;;;;;78.68;27.73;;;;;;;;;;6231679;28;20051;-60
2022/08/24 07:04:26;;;;;;;88.47;32.78;;;;;;;;;;6229575;28;20077;-56
2022/08/24 07:07:28;;;;;;;82.50;28.50;;;;;;;;;;6234687;28;20048;-58
2022/08/24 07:10:29;;;;;;;77.40;26.90;;;;;;;;;;6233184;28;20504;-60
2022/08/24 07:13:31;;;;;;;81.85;28.55;;;;;;;;;;6225214;28;20453;-61
2022/08/24 07:16:33;;;;;;;85.30;30.58;;;;;;;;;;6235651;28;20473;-63
2022/08/24 07:19:33;;;;;;;;;;;;;;;;;;6236647;28;20140;-62
2022/08/24 07:22:34;;;;;;;70.65;25.45;;;;;;;;;;6232288;28;20965;-58
2022/08/24 07:25:34;;;;;;;81.37;28.53;;;;;;;;;;6225418;28;20045;-64
2022/08/24 07:28:37;;;;;;;80.13;27.63;;;;;;;;;;6223987;28;20054;-63
2022/08/24 07:31:38;;;;;;;72.25;27.83;;;;;;;;;;6230156;28;20049;-61
2022/08/24 07:34:39;;;;;;;81.17;27.97;;;;;;;;;;6237464;28;20057;-62
2022/08/24 07:37:40;;;;;;;79.37;27.80;;;;;;;;;;6232716;28;20325;-60
2022/08/24 07:40:46;;;;;;;83.20;29.33;;;;;;;;;;6229793;28;20056;-62
2022/08/24 07:43:48;;;;;;;75.72;28.00;;;;;;;;;;6226219;28;20077;-65
2022/08/24 07:46:48;;;;;;;75.60;27.98;;;;;;;;;;6237793;28;20171;-63
2022/08/24 07:49:49;;;;;;;69.80;27.57;;;;;;;;;;6224480;28;20512;-63
2022/08/24 07:52:50;;;;;;;83.73;30.03;;;;;;;;;;6234420;28;20060;-62
2022/08/24 07:55:55;;;;;;;71.97;27.42;;;;;;;;;;6224148;28;20136;-62
2022/08/24 07:58:56;;;;;;;77.07;27.23;;;;;;;;;;6215891;28;20046;-62
2022/08/24 08:01:58;;;;;;;76.87;28.23;;;;;;;;;;6226941;28;20052;-65
2022/08/24 08:04:58;;;;;;;74.55;27.15;;;;;;;;;;6230811;28;20057;-61
2022/08/24 08:07:59;;;;;;;73.90;27.70;;;;;;;;;;6225066;28;20198;-62
2022/08/24 08:11:02;;;;;;;74.73;28.50;;;;;;;;;;6225033;28;20295;-59
2022/08/24 08:14:03;;;;;;;67.88;26.05;;;;;;;;;;6237776;28;20491;-60
2022/08/24 08:17:04;;;;;;;76.73;27.83;;;;;;;;;;6241996;28;20052;-66
2022/08/24 08:20:07;;;;;;;73.97;28.73;;;;;;;;;;6240756;28;20665;-62
2022/08/24 08:26:28;;;;;;;73.07;27.58;;;;;;;;;;6236910;28;20164;-63
2022/08/24 08:29:31;;;;;;;68.90;27.47;;;;;;;;;;6233240;28;20568;-59
2022/08/24 08:32:32;;;;;;;70.15;26.33;;;;;;;;;;6235734;28;20407;-61
2022/08/24 08:35:34;;;;;;;60.80;24.88;;;;;;;;;;6229012;28;20112;-60
2022/08/24 08:38:35;;;;;;;165.07;80.90;;;;;;;;;;6236388;28;20057;-62
2022/08/24 08:42:13;;;;;;;57.72;23.83;;;;;;;;;;6238016;28;20401;-62
2022/08/24 08:45:34;;;;;;;67.55;24.90;;;;;;;;;;6236266;28;20046;-60
2022/08/24 08:49:06;;;;;;;61.33;23.65;;;;;;;;;;6235516;28;20121;-62
2022/08/24 08:52:43;;;;;;;52.60;23.58;;;;;;;;;;6232445;28;20054;-61
2022/08/24 08:55:51;;;;;;;61.33;23.52;;;;;;;;;;6217852;28;20046;-62
2022/08/24 08:58:55;;;;;;;61.00;23.85;;;;;;;;;;6215928;28;20162;-59
2022/08/24 09:02:20;;;;;;;64.90;24.95;;;;;;;;;;6215518;28;20093;-61
2022/08/24 09:05:57;;;;;;;59.58;24.38;;;;;;;;;;6217093;28;21500;-58
2022/08/24 09:09:09;;;;;;;64.47;25.75;;;;;;;;;;6208556;28;20504;-62
2022/08/24 09:12:15;;;;;;;64.32;26.42;;;;;;;;;;6216605;28;20136;-60
2022/08/24 09:15:45;;;;;;;70.97;26.80;;;;;;;;;;6216815;28;20046;-59
2022/08/24 09:19:24;;;;;;;76.63;27.13;;;;;;;;;;6230333;28;20089;-62
2022/08/24 09:22:25;;;;;;;73.03;26.65;;;;;;;;;;6238832;28;20067;-59
2022/08/24 09:25:34;;;;;;;78.40;27.30;;;;;;;;;;6227739;28;20049;-62
2022/08/24 09:28:52;;;;;;;71.90;27.33;;;;;;;;;;6229603;28;20081;-63
2022/08/24 09:32:18;;;;;;;73.90;26.42;;;;;;;;;;6233830;28;20047;-64
2022/08/24 09:35:48;;;;;;;81.55;27.58;;;;;;;;;;6202399;28;20507;-60
2022/08/24 09:38:57;;;;;;;75.95;28.70;;;;;;;;;;6214341;28;20136;-61
2022/08/24 09:42:32;;;;;;;80.88;30.00;;;;;;;;;;6216476;28;20045;-65
2022/08/24 09:45:39;;;;;;;79.43;29.23;;;;;;;;;;6216016;28;20579;-65
2022/08/24 09:49:23;;;;;;;76.55;28.92;;;;;;;;;;6227610;28;20186;-63
2022/08/24 09:52:49;;;;;;;76.93;30.27;;;;;;;;;;6210744;28;20144;-65
2022/08/24 09:55:55;;;;;;;84.78;28.48;;;;;;;;;;6233190;28;20061;-63
2022/08/24 09:59:28;;;;;;;73.10;28.23;;;;;;;;;;6230352;28;20066;-62
2022/08/24 10:02:48;;;;;;;77.15;29.98;;;;;;;;;;6235184;28;20065;-63
2022/08/24 10:06:02;;;;;;;84.68;27.83;;;;;;;;;;6222192;28;20041;-61
2022/08/24 10:09:29;;;;;;;76.75;28.80;;;;;;;;;;6228871;28;20045;-56
2022/08/24 10:13:02;;;;;;;81.80;30.92;;;;;;;;;;6239268;28;20061;-59
2022/08/24 10:16:37;;;;;;;93.38;34.95;;;;;;;;;;6222651;28;20049;-57
2022/08/24 10:20:05;;;;;;;86.07;31.95;;;;;;;;;;6227590;28;20579;-58
2022/08/24 10:23:09;;;;;;;91.95;36.00;;;;;;;;;;6234370;28;20045;-62
2022/08/24 10:26:15;;;;;;;83.65;31.58;;;;;;;;;;6234664;28;20088;-63
2022/08/24 10:29:48;;;;;;;79.38;32.97;;;;;;;;;;6214301;28;20424;-55
2022/08/24 10:33:11;;;;;;;80.65;32.08;;;;;;;;;;6224162;28;20103;-59
2022/08/24 10:36:47;;;;;;;84.32;30.67;;;;;;;;;;6230920;28;20113;-62
2022/08/24 10:40:04;;;;;;;86.53;31.25;;;;;;;;;;6235380;28;20112;-58
2022/08/24 10:43:35;;;;;;;88.65;32.10;;;;;;;;;;6221003;28;20086;-59
2022/08/24 10:46:58;;;;;;;75.20;31.55;;;;;;;;;;6237079;28;20148;-59
2022/08/24 10:49:58;;;;;;;87.07;32.13;;;;;;;;;;6221361;28;20120;-63
2022/08/24 10:53:16;;;;;;;83.53;31.20;;;;;;;;;;6222956;28;20096;-61
2022/08/24 10:56:29;;;;;;;82.45;30.83;;;;;;;;;;6234958;28;20049;-60
2022/08/24 10:59:39;;;;;;;76.25;31.38;;;;;;;;;;6235512;28;20177;-59
2022/08/24 11:02:42;;;;;;;78.47;30.50;;;;;;;;;;6229954;28;20144;-61
2022/08/24 11:05:50;;;;;;;79.10;30.77;;;;;;;;;;6215046;28;20140;-59
2022/08/24 11:09:17;;;;;;;75.15;28.42;;;;;;;;;;6222615;28;20136;-61
2022/08/24 11:12:35;;;;;;;75.00;29.02;;;;;;;;;;6225325;28;20140;-58
2022/08/24 11:15:46;;;;;;;80.60;29.80;;;;;;;;;;6230810;28;20496;-63
2022/08/24 11:18:51;;;;;;;75.40;29.02;;;;;;;;;;6230319;28;20069;-61
2022/08/24 11:21:54;;;;;;;73.85;28.33;;;;;;;;;;6228204;28;20045;-60
2022/08/24 11:25:09;;;;;;;82.10;28.88;;;;;;;;;;6231285;28;20153;-61
2022/08/24 11:28:37;;;;;;;83.47;30.75;;;;;;;;;;6223180;28;20116;-58
2022/08/24 11:31:40;;;;;;;74.10;29.13;;;;;;;;;;6232552;28;20793;-60
2022/08/24 11:34:45;;;;;;;79.22;31.83;;;;;;;;;;6226982;28;20140;-58
2022/08/24 11:37:48;;;;;;;81.50;31.13;;;;;;;;;;6231085;28;20086;-54
2022/08/24 11:41:12;;;;;;;85.78;32.40;;;;;;;;;;6231119;28;20519;-57
2022/08/24 11:44:34;;;;;;;85.32;32.67;;;;;;;;;;6235635;28;20144;-57
2022/08/24 11:47:35;;;;;;;74.40;30.88;;;;;;;;;;6235907;28;20060;-60
2022/08/24 11:50:55;;;;;;;74.30;30.83;;;;;;;;;;6240295;28;20145;-60
2022/08/24 11:54:08;;;;;;;74.18;31.75;;;;;;;;;;6242117;28;20045;-51
2022/08/24 11:57:14;;;;;;;85.53;33.75;;;;;;;;;;6233582;28;20037;-62
2022/08/24 12:00:22;;;;;;;86.85;33.65;;;;;;;;;;6234689;28;20061;-64
2022/08/24 12:03:47;;;;;;;78.18;31.33;;;;;;;;;;6239164;28;20049;-59
2022/08/24 12:07:01;;;;;;;73.53;29.02;;;;;;;;;;6226679;28;20042;-62
2022/08/24 12:10:11;;;;;;;77.55;30.23;;;;;;;;;;6241029;28;20092;-58
2022/08/24 12:13:14;;;;;;;77.93;30.73;;;;;;;;;;6238735;28;20044;-59
2022/08/24 12:16:32;;;;;;;84.78;29.92;;;;;;;;;;6241577;28;20069;-62
2022/08/24 12:19:38;;;;;;;75.45;30.88;;;;;;;;;;6227000;28;20124;-62
2022/08/24 12:22:40;;;;;;;73.28;30.63;;;;;;;;;;6228602;28;20136;-62
2022/08/24 12:26:03;;;;;;;83.57;29.50;;;;;;;;;;6233211;28;20709;-64
2022/08/24 12:29:15;;;;;;;79.35;31.10;;;;;;;;;;6220844;28;20089;-59
2022/08/24 12:32:20;;;;;;;75.88;30.45;;;;;;;;;;6220055;28;20056;-64
2022/08/24 12:35:28;;;;;;;76.20;30.15;;;;;;;;;;6227769;28;20160;-58
2022/08/24 12:38:39;;;;;;;72.35;30.30;;;;;;;;;;6229818;28;20501;-63
2022/08/24 12:41:56;;;;;;;65.77;28.53;;;;;;;;;;6227112;28;20113;-59
2022/08/24 12:45:04;;;;;;;76.05;29.80;;;;;;;;;;6225699;28;20060;-61
2022/08/24 12:48:27;;;;;;;74.68;30.85;;;;;;;;;;6227489;28;20053;-61
2022/08/24 12:51:50;;;;;;;75.80;28.50;;;;;;;;;;6225232;28;20271;-58
2022/08/24 12:55:10;;;;;;;73.85;28.08;;;;;;;;;;6227062;28;20057;-60
2022/08/24 12:58:44;;;;;;;67.30;26.38;;;;;;;;;;6229094;28;20049;-60
2022/08/24 13:01:55;;;;;;;59.85;25.88;;;;;;;;;;6225425;28;20038;-65
2022/08/24 13:05:03;;;;;;;76.35;27.05;;;;;;;;;;6232011;28;20053;-62
2022/08/24 13:08:37;;;;;;;79.95;26.83;;;;;;;;;;6229202;28;20045;-62
2022/08/24 13:11:37;;;;;;;68.47;24.20;;;;;;;;;;6229633;28;20056;-61
2022/08/24 13:14:38;;;;;;;65.13;24.83;;;;;;;;;;6226009;28;20840;-63
2022/08/24 13:17:40;;;;;;;70.17;24.37;;;;;;;;;;6228499;28;20042;-62
2022/08/24 13:20:41;;;;;;;73.35;25.77;;;;;;;;;;6210240;28;20164;-63
2022/08/24 13:23:42;;;;;;;63.00;23.53;;;;;;;;;;6229093;28;20661;-62
2022/08/24 13:26:42;;;;;;;69.90;24.33;;;;;;;;;;6228310;28;20046;-63
2022/08/24 13:29:52;;;;;;;71.63;24.63;;;;;;;;;;6230495;28;20293;-62
2022/08/24 13:33:04;;;;;;;66.43;25.00;;;;;;;;;;6227016;28;20844;-62
2022/08/24 13:36:28;;;;;;;60.45;24.98;;;;;;;;;;6229132;28;20465;-60
2022/08/24 13:39:40;;;;;;;76.85;25.05;;;;;;;;;;6229705;28;20050;-59
2022/08/24 13:43:26;;;;;;;62.40;24.80;;;;;;;;;;6229380;28;20048;-61
2022/08/24 13:46:51;;;;;;;79.28;24.95;;;;;;;;;;6154820;28;20230;-62
2022/08/24 13:50:25;;;;;;;73.53;24.38;;;;;;;;;;6229447;28;20053;-62
2022/08/24 13:54:04;;;;;;;66.22;23.67;;;;;;;;;;6230322;28;20049;-60
2022/08/24 13:57:13;;;;;;;75.60;24.38;;;;;;;;;;6231105;28;20073;-57
2022/08/24 14:00:14;;;;;;;86.40;25.52;;;;;;;;;;6221703;28;20099;-60
2022/08/24 14:03:23;;;;;;;72.40;25.33;;;;;;;;;;6228088;28;20050;-62
2022/08/24 14:06:52;;;;;;;74.05;25.88;;;;;;;;;;6228448;28;20037;-60
2022/08/24 14:10:02;;;;;;;61.17;25.08;;;;;;;;;;6231351;28;20259;-58
2022/08/24 14:13:21;;;;;;;71.60;26.85;;;;;;;;;;6227993;28;20057;-56
2022/08/24 14:20:02;;;;;;;73.97;27.42;;;;;;;;;;6228196;28;20132;-59
2022/08/24 14:23:30;;;;;;;73.10;26.60;;;;;;;;;;6226075;28;20095;-61
2022/08/24 14:26:42;;;;;;;57.50;25.73;;;;;;;;;;6228363;28;20057;-59
2022/08/24 14:29:45;;;;;;;69.32;27.23;;;;;;;;;;6229433;28;20042;-63
2022/08/24 14:32:58;;;;;;;61.53;27.02;;;;;;;;;;6225263;28;20057;-58
2022/08/24 14:36:09;;;;;;;69.28;27.60;;;;;;;;;;6229305;28;20049;-61
2022/08/24 14:39:28;;;;;;;;;;;;;;;;;;6231505;28;20045;-61
2022/08/24 14:42:55;;;;;;;55.95;27.75;;;;;;;;;;6227567;28;19925;-60
2022/08/24 14:46:28;;;;;;;71.55;28.38;;;;;;;;;;6227741;28;20133;-66
2022/08/24 14:49:43;;;;;;;65.75;28.05;;;;;;;;;;6203940;28;20136;-61
2022/08/24 14:52:59;;;;;;;70.80;28.25;;;;;;;;;;6201680;28;20077;-57
2022/08/24 14:56:15;;;;;;;64.70;27.60;;;;;;;;;;6204894;28;20655;-57
2022/08/24 14:59:28;;;;;;;68.13;27.98;;;;;;;;;;6202838;28;20065;-56
2022/08/24 15:02:28;;;;;;;81.47;29.10;;;;;;;;;;6191971;28;20057;-60
2022/08/24 15:05:44;;;;;;;65.20;28.27;;;;;;;;;;6196263;28;20871;-60
2022/08/24 15:08:45;;;;;;;69.43;28.92;;;;;;;;;;6194350;28;20433;-59
2022/08/24 15:11:47;;;;;;;77.22;30.00;;;;;;;;;;6191719;28;20069;-62
2022/08/24 15:14:58;;;;;;;74.32;29.83;;;;;;;;;;6196997;28;20420;-56
2022/08/24 15:18:20;;;;;;;73.53;27.90;;;;;;;;;;6193980;28;20160;-60
2022/08/24 15:21:30;;;;;;;73.75;30.05;;;;;;;;;;6194097;28;20042;-57
2022/08/24 15:24:51;;;;;;;61.30;27.80;;;;;;;;;;6199679;28;20053;-58
2022/08/24 15:27:57;;;;;;;80.15;28.58;;;;;;;;;;6198892;28;20050;-56
2022/08/24 15:31:04;;;;;;;66.90;28.63;;;;;;;;;;6199494;28;20048;-62
2022/08/24 15:34:05;;;;;;;76.80;27.95;;;;;;;;;;6198600;28;20042;-58
2022/08/24 15:37:05;;;;;;;92.82;33.45;;;;;;;;;;6200727;28;20415;-60
2022/08/24 15:40:25;;;;;;;81.37;34.83;;;;;;;;;;6197567;28;20582;-60
2022/08/24 15:43:26;;;;;;;78.05;32.95;;;;;;;;;;6197061;28;20149;-58
2022/08/24 15:46:41;;;;;;;83.10;33.80;;;;;;;;;;6200058;28;20494;-58
2022/08/24 15:49:55;;;;;;;82.80;33.42;;;;;;;;;;6195964;28;20045;-61
2022/08/24 15:53:23;;;;;;;83.10;33.58;;;;;;;;;;6199092;28;20053;-62
2022/08/24 15:56:28;;;;;;;80.10;32.60;;;;;;;;;;6198295;28;20489;-60
2022/08/24 15:59:44;;;;;;;84.78;35.22;;;;;;;;;;6197368;28;20533;-62
2022/08/24 16:02:45;;;;;;;75.30;33.70;;;;;;;;;;6196464;28;20453;-59
2022/08/24 16:05:45;;;;;;;87.40;37.00;;;;;;;;;;6200073;28;20050;-59
2022/08/24 16:09:03;;;;;;;89.30;37.45;;;;;;;;;;6201813;28;20054;-59
2022/08/24 16:12:05;;;;;;;90.18;37.33;;;;;;;;;;6195878;28;20772;-59
2022/08/24 16:15:12;;;;;;;90.75;35.67;;;;;;;;;;6196261;28;20480;-59
2022/08/24 16:18:16;;;;;;;89.55;33.92;;;;;;;;;;6196801;28;20541;-61
2022/08/24 16:21:49;;;;;;;87.45;36.88;;;;;;;;;;6194653;28;20050;-66
2022/08/24 16:25:21;;;;;;;80.53;37.70;;;;;;;;;;6195732;28;20046;-59
2022/08/24 16:28:22;;;;;;;;;;;;;;;;;;6198617;28;20417;-59
2022/08/24 16:31:47;;;;;;;96.33;36.00;;;;;;;;;;6196968;28;19937;-63
2022/08/24 16:34:50;;;;;;;89.72;36.60;;;;;;;;;;6199646;28;20050;-65
2022/08/24 16:37:53;;;;;;;89.55;39.15;;;;;;;;;;6196659;28;21587;-58
2022/08/24 16:40:59;;;;;;;84.57;37.22;;;;;;;;;;6195879;28;20911;-59
2022/08/24 16:44:00;;;;;;;95.88;37.85;;;;;;;;;;6195323;28;20076;-60
2022/08/24 16:47:02;;;;;;;95.93;38.37;;;;;;;;;;6195407;28;20054;-59
2022/08/24 16:50:03;;;;;;;;;;;;;;;;;;6199089;28;20306;-58
2022/08/24 16:53:04;;;;;;;83.50;37.03;;;;;;;;;;6195879;28;19929;-57
2022/08/24 16:56:07;;;;;;;89.90;37.50;;;;;;;;;;6196173;28;20440;-58
2022/08/24 16:59:17;;;;;;;84.05;36.42;;;;;;;;;;6198571;28;20388;-60
2022/08/24 17:02:20;;;;;;;88.53;36.08;;;;;;;;;;6197615;28;21272;-62
2022/08/24 17:05:21;;;;;;;88.45;39.78;;;;;;;;;;6198838;28;20058;-59
2022/08/24 17:08:21;;;;;;;83.20;38.03;;;;;;;;;;6199608;28;20046;-60
2022/08/24 17:11:22;;;;;;;90.00;39.90;;;;;;;;;;6194477;28;20054;-60
2022/08/24 17:14:23;;;;;;;92.00;39.97;;;;;;;;;;6196171;28;20112;-62
2022/08/24 17:17:24;;;;;;;84.90;37.63;;;;;;;;;;6196109;28;20042;-60
2022/08/24 17:20:25;;;;;;;98.05;38.75;;;;;;;;;;6200455;28;20066;-58
2022/08/24 17:23:26;;;;;;;90.38;38.22;;;;;;;;;;6202864;28;20068;-60
2022/08/24 17:26:27;;;;;;;84.60;39.40;;;;;;;;;;6206710;28;20062;-60
2022/08/24 17:29:28;;;;;;;103.45;41.55;;;;;;;;;;6204581;28;20053;-58
2022/08/24 17:32:29;;;;;;;96.90;39.20;;;;;;;;;;6201635;28;20054;-58
2022/08/24 17:35:30;;;;;;;100.13;39.20;;;;;;;;;;6207516;28;20136;-59
2022/08/24 17:38:37;;;;;;;93.43;39.60;;;;;;;;;;6206779;28;20052;-57
2022/08/24 17:41:38;;;;;;;96.18;39.70;;;;;;;;;;6206119;28;20077;-58
2022/08/24 17:44:38;;;;;;;67.00;26.47;;;;;;;;;;6188827;28;20949;-60
2022/08/24 17:47:41;;;;;;;57.07;18.73;;;;;;;;;;6214770;28;20045;-59
2022/08/24 17:50:43;;;;;;;38.53;13.90;;;;;;;;;;6219002;28;20053;-58
2022/08/24 17:53:44;;;;;;;37.72;13.88;;;;;;;;;;6220202;28;20050;-61
2022/08/24 17:56:47;;;;;;;37.63;12.77;;;;;;;;;;6219046;28;20052;-63
2022/08/24 17:59:49;;;;;;;45.78;13.25;;;;;;;;;;6217673;28;20046;-57
2022/08/24 18:02:50;;;;;;;34.67;13.20;;;;;;;;;;6216104;28;20056;-58
2022/08/24 18:05:51;;;;;;;36.80;14.30;;;;;;;;;;6216884;28;20073;-62
2022/08/24 18:08:55;;;;;;;37.65;13.95;;;;;;;;;;6224319;28;20537;-63
2022/08/24 18:11:56;;;;;;;41.05;12.13;;;;;;;;;;6224870;28;20142;-63
2022/08/24 18:14:57;;;;;;;38.00;13.40;;;;;;;;;;6227837;28;20048;-63
2022/08/24 18:18:00;;;;;;;35.60;12.20;;;;;;;;;;6226209;28;20148;-64
2022/08/24 18:21:00;;;;;;;34.60;12.55;;;;;;;;;;6225443;28;20847;-63